sensor_id;sensor_type;location;lat;lon;timestamp;temperature;humidity
71754;DHT22;59593;51.716;7.016;2023-02-01T00:02:11;5.80;99.90
71754;DHT22;59593;51.716;7.016;2023-02-01T00:04:36;5.90;99.90
71754;DHT22;59593;51.716;7.016;2023-02-01T00:07:02;5.90;99.90
71754;DHT22;59593;51.716;7.016;2023-02-01T00:09:28;5.80;99.90
71754;DHT22;59593;51.716;7.016;2023-02-01T00:11:53;5.90;99.90
71754;DHT22;59593;51.716;7.016;2023-02-01T00:14:19;5.90;99.90
71754;DHT22;59593;51.716;7.016;2023-02-01T00:16:44;5.80;99.90
71754;DHT22;59593;51.716;7.016;2023-02-01T00:19:14;5.90;99.90
71754;DHT22;59593;51.716;7.016;2023-02-01T00:21:39;5.90;99.90
71754;DHT22;59593;51.716;7.016;2023-02-01T00:24:05;5.90;99.90
71754;DHT22;59593;51.716;7.016;2023-02-01T00:26:33;5.90;99.90
71754;DHT22;59593;51.716;7.016;2023-02-01T00:29:01;5.80;99.90
71754;DHT22;59593;51.716;7.016;2023-02-01T00:31:26;5.90;99.90
71754;DHT22;59593;51.716;7.016;2023-02-01T00:33:52;5.90;99.90
71754;DHT22;59593;51.716;7.016;2023-02-01T00:36:18;5.90;99.90
71754;DHT22;59593;51.716;7.016;2023-02-01T00:38:43;5.90;99.90
71754;DHT22;59593;51.716;7.016;2023-02-01T00:41:16;6.00;99.90
71754;DHT22;59593;51.716;7.016;2023-02-01T00:43:43;6.00;99.90
71754;DHT22;59593;51.716;7.016;2023-02-01T00:46:10;6.00;99.90
71754;DHT22;59593;51.716;7.016;2023-02-01T00:48:36;6.00;99.90
71754;DHT22;59593;51.716;7.016;2023-02-01T00:51:07;5.90;99.90
71754;DHT22;59593;51.716;7.016;2023-02-01T00:53:33;5.90;99.90
71754;DHT22;59593;51.716;7.016;2023-02-01T00:55:59;5.90;99.90
71754;DHT22;59593;51.716;7.016;2023-02-01T00:58:25;5.90;99.90
71754;DHT22;59593;51.716;7.016;2023-02-01T01:01:05;5.90;99.90
71754;DHT22;59593;51.716;7.016;2023-02-01T01:03:32;5.90;99.90
71754;DHT22;59593;51.716;7.016;2023-02-01T01:06:00;5.90;99.90
71754;DHT22;59593;51.716;7.016;2023-02-01T01:08:26;5.90;99.90
71754;DHT22;59593;51.716;7.016;2023-02-01T01:10:52;5.90;99.90
71754;DHT22;59593;51.716;7.016;2023-02-01T01:13:18;5.90;99.90
71754;DHT22;59593;51.716;7.016;2023-02-01T01:15:44;5.90;99.90
71754;DHT22;59593;51.716;7.016;2023-02-01T01:18:10;6.00;99.90
71754;DHT22;59593;51.716;7.016;2023-02-01T01:20:39;5.90;99.90
71754;DHT22;59593;51.716;7.016;2023-02-01T01:23:06;5.90;99.90
71754;DHT22;59593;51.716;7.016;2023-02-01T01:25:32;5.90;99.90
71754;DHT22;59593;51.716;7.016;2023-02-01T01:27:58;5.90;99.90
71754;DHT22;59593;51.716;7.016;2023-02-01T01:30:24;5.90;99.90
71754;DHT22;59593;51.716;7.016;2023-02-01T01:32:50;5.90;99.90
71754;DHT22;59593;51.716;7.016;2023-02-01T01:35:16;6.00;99.90
71754;DHT22;59593;51.716;7.016;2023-02-01T01:37:42;5.90;99.90
71754;DHT22;59593;51.716;7.016;2023-02-01T01:40:10;5.90;99.90
71754;DHT22;59593;51.716;7.016;2023-02-01T01:42:39;5.90;99.90
71754;DHT22;59593;51.716;7.016;2023-02-01T01:47:53;5.90;99.90
71754;DHT22;59593;51.716;7.016;2023-02-01T01:50:27;6.00;99.90
71754;DHT22;59593;51.716;7.016;2023-02-01T01:52:55;6.00;99.90
71754;DHT22;59593;51.716;7.016;2023-02-01T01:55:21;6.10;99.90
71754;DHT22;59593;51.716;7.016;2023-02-01T01:57:57;6.10;99.90
71754;DHT22;59593;51.716;7.016;2023-02-01T02:00:24;6.10;99.90
71754;DHT22;59593;51.716;7.016;2023-02-01T02:02:55;6.10;99.90
71754;DHT22;59593;51.716;7.016;2023-02-01T02:05:22;6.10;99.90
71754;DHT22;59593;51.716;7.016;2023-02-01T02:07:53;6.10;99.90
71754;DHT22;59593;51.716;7.016;2023-02-01T02:10:19;6.20;99.90
71754;DHT22;59593;51.716;7.016;2023-02-01T02:12:47;6.20;99.90
71754;DHT22;59593;51.716;7.016;2023-02-01T02:15:16;6.20;99.90
71754;DHT22;59593;51.716;7.016;2023-02-01T02:18:18;6.20;99.90
71754;DHT22;59593;51.716;7.016;2023-02-01T02:23:55;6.30;99.90
71754;DHT22;59593;51.716;7.016;2023-02-01T02:32:11;6.30;99.90
71754;DHT22;59593;51.716;7.016;2023-02-01T02:34:49;6.30;99.90
71754;DHT22;59593;51.716;7.016;2023-02-01T02:37:33;6.20;99.90
71754;DHT22;59593;51.716;7.016;2023-02-01T02:45:49;6.30;99.90
71754;DHT22;59593;51.716;7.016;2023-02-01T02:48:55;6.30;99.90
71754;DHT22;59593;51.716;7.016;2023-02-01T02:51:47;6.30;99.90
71754;DHT22;59593;51.716;7.016;2023-02-01T02:54:36;6.30;99.90
71754;DHT22;59593;51.716;7.016;2023-02-01T03:00:19;6.30;99.90
71754;DHT22;59593;51.716;7.016;2023-02-01T03:03:05;6.30;99.90
71754;DHT22;59593;51.716;7.016;2023-02-01T03:05:50;6.30;99.90
71754;DHT22;59593;51.716;7.016;2023-02-01T03:08:21;6.30;99.90
71754;DHT22;59593;51.716;7.016;2023-02-01T03:13:27;6.30;99.90
71754;DHT22;59593;51.716;7.016;2023-02-01T03:20:51;6.20;99.90
71754;DHT22;59593;51.716;7.016;2023-02-01T03:23:22;6.30;99.90
71754;DHT22;59593;51.716;7.016;2023-02-01T03:25:50;6.20;99.90
71754;DHT22;59593;51.716;7.016;2023-02-01T03:28:18;6.20;99.90
71754;DHT22;59593;51.716;7.016;2023-02-01T03:30:48;6.20;99.90
71754;DHT22;59593;51.716;7.016;2023-02-01T03:33:21;6.20;99.90
71754;DHT22;59593;51.716;7.016;2023-02-01T03:41:24;6.10;99.90
71754;DHT22;59593;51.716;7.016;2023-02-01T03:46:56;6.00;99.90
71754;DHT22;59593;51.716;7.016;2023-02-01T03:49:30;6.00;99.90
71754;DHT22;59593;51.716;7.016;2023-02-01T03:51:59;6.00;99.90
71754;DHT22;59593;51.716;7.016;2023-02-01T03:54:27;6.00;99.90
71754;DHT22;59593;51.716;7.016;2023-02-01T03:56:56;6.00;99.90
71754;DHT22;59593;51.716;7.016;2023-02-01T03:59:23;6.00;99.90
71754;DHT22;59593;51.716;7.016;2023-02-01T04:01:49;6.00;99.90
71754;DHT22;59593;51.716;7.016;2023-02-01T04:04:15;6.00;99.90
71754;DHT22;59593;51.716;7.016;2023-02-01T04:06:49;6.00;99.90
71754;DHT22;59593;51.716;7.016;2023-02-01T04:09:15;6.00;99.90
71754;DHT22;59593;51.716;7.016;2023-02-01T04:11:42;6.00;99.90
71754;DHT22;59593;51.716;7.016;2023-02-01T04:14:08;5.90;99.90
71754;DHT22;59593;51.716;7.016;2023-02-01T04:16:34;5.90;99.90
71754;DHT22;59593;51.716;7.016;2023-02-01T04:19:00;5.90;99.90
71754;DHT22;59593;51.716;7.016;2023-02-01T04:21:26;5.90;99.90
71754;DHT22;59593;51.716;7.016;2023-02-01T04:23:53;5.90;99.90
71754;DHT22;59593;51.716;7.016;2023-02-01T04:26:19;5.90;99.90
71754;DHT22;59593;51.716;7.016;2023-02-01T04:28:45;5.90;99.90
71754;DHT22;59593;51.716;7.016;2023-02-01T04:31:16;5.90;99.90
71754;DHT22;59593;51.716;7.016;2023-02-01T04:33:42;5.90;99.90
71754;DHT22;59593;51.716;7.016;2023-02-01T04:36:08;5.90;99.90
71754;DHT22;59593;51.716;7.016;2023-02-01T04:38:33;5.90;99.90
71754;DHT22;59593;51.716;7.016;2023-02-01T04:41:02;5.90;99.90
71754;DHT22;59593;51.716;7.016;2023-02-01T04:43:27;5.90;99.90
71754;DHT22;59593;51.716;7.016;2023-02-01T04:45:53;6.00;99.90
71754;DHT22;59593;51.716;7.016;2023-02-01T04:48:20;6.00;99.90
71754;DHT22;59593;51.716;7.016;2023-02-01T04:50:46;6.00;99.90
71754;DHT22;59593;51.716;7.016;2023-02-01T04:53:17;6.00;99.90
71754;DHT22;59593;51.716;7.016;2023-02-01T04:55:43;6.00;99.90
71754;DHT22;59593;51.716;7.016;2023-02-01T04:58:10;6.00;99.90
71754;DHT22;59593;51.716;7.016;2023-02-01T05:00:36;6.10;99.90
71754;DHT22;59593;51.716;7.016;2023-02-01T05:03:03;6.10;99.90
71754;DHT22;59593;51.716;7.016;2023-02-01T05:05:29;6.10;99.90
71754;DHT22;59593;51.716;7.016;2023-02-01T05:07:55;6.10;99.90
71754;DHT22;59593;51.716;7.016;2023-02-01T05:10:21;6.10;99.90
71754;DHT22;59593;51.716;7.016;2023-02-01T05:12:47;6.10;99.90
71754;DHT22;59593;51.716;7.016;2023-02-01T05:15:39;6.20;99.90
71754;DHT22;59593;51.716;7.016;2023-02-01T05:18:04;6.20;99.90
71754;DHT22;59593;51.716;7.016;2023-02-01T05:20:30;6.20;99.90
71754;DHT22;59593;51.716;7.016;2023-02-01T05:22:56;6.20;99.90
71754;DHT22;59593;51.716;7.016;2023-02-01T05:25:24;6.30;99.90
71754;DHT22;59593;51.716;7.016;2023-02-01T05:27:50;6.30;99.90
71754;DHT22;59593;51.716;7.016;2023-02-01T05:30:16;6.20;99.90
71754;DHT22;59593;51.716;7.016;2023-02-01T05:32:42;6.20;99.90
71754;DHT22;59593;51.716;7.016;2023-02-01T05:35:08;6.10;99.90
71754;DHT22;59593;51.716;7.016;2023-02-01T05:37:34;6.10;99.90
71754;DHT22;59593;51.716;7.016;2023-02-01T05:40:00;6.10;99.90
71754;DHT22;59593;51.716;7.016;2023-02-01T05:42:47;6.10;99.90
71754;DHT22;59593;51.716;7.016;2023-02-01T05:45:13;6.00;99.90
71754;DHT22;59593;51.716;7.016;2023-02-01T05:47:41;6.00;99.90
71754;DHT22;59593;51.716;7.016;2023-02-01T05:50:07;6.10;99.90
71754;DHT22;59593;51.716;7.016;2023-02-01T05:52:33;6.20;99.90
71754;DHT22;59593;51.716;7.016;2023-02-01T05:54:59;6.20;99.90
71754;DHT22;59593;51.716;7.016;2023-02-01T05:57:24;6.10;99.90
71754;DHT22;59593;51.716;7.016;2023-02-01T05:59:50;6.10;99.90
71754;DHT22;59593;51.716;7.016;2023-02-01T06:02:16;6.10;99.90
71754;DHT22;59593;51.716;7.016;2023-02-01T06:04:41;6.30;99.90
71754;DHT22;59593;51.716;7.016;2023-02-01T06:07:08;6.20;99.90
71754;DHT22;59593;51.716;7.016;2023-02-01T06:09:35;6.10;99.90
71754;DHT22;59593;51.716;7.016;2023-02-01T06:12:02;6.00;99.90
71754;DHT22;59593;51.716;7.016;2023-02-01T06:14:28;6.10;99.90
71754;DHT22;59593;51.716;7.016;2023-02-01T06:16:57;6.10;99.90
71754;DHT22;59593;51.716;7.016;2023-02-01T06:19:23;6.00;99.90
71754;DHT22;59593;51.716;7.016;2023-02-01T06:21:49;6.10;99.90
71754;DHT22;59593;51.716;7.016;2023-02-01T06:24:17;6.10;99.90
71754;DHT22;59593;51.716;7.016;2023-02-01T06:26:43;6.10;99.90
71754;DHT22;59593;51.716;7.016;2023-02-01T06:29:12;6.10;99.90
71754;DHT22;59593;51.716;7.016;2023-02-01T06:31:38;6.10;99.90
71754;DHT22;59593;51.716;7.016;2023-02-01T06:34:08;6.10;99.90
71754;DHT22;59593;51.716;7.016;2023-02-01T06:36:33;6.10;99.90
71754;DHT22;59593;51.716;7.016;2023-02-01T06:38:59;6.10;99.90
71754;DHT22;59593;51.716;7.016;2023-02-01T06:41:28;6.10;99.90
71754;DHT22;59593;51.716;7.016;2023-02-01T06:43:53;6.10;99.90
71754;DHT22;59593;51.716;7.016;2023-02-01T06:46:19;6.10;99.90
71754;DHT22;59593;51.716;7.016;2023-02-01T06:48:47;6.10;99.90
71754;DHT22;59593;51.716;7.016;2023-02-01T06:51:27;6.10;99.90
71754;DHT22;59593;51.716;7.016;2023-02-01T06:53:56;6.10;99.90
71754;DHT22;59593;51.716;7.016;2023-02-01T06:56:22;6.10;99.90
71754;DHT22;59593;51.716;7.016;2023-02-01T06:58:48;6.10;99.90
71754;DHT22;59593;51.716;7.016;2023-02-01T07:01:15;6.10;99.90
71754;DHT22;59593;51.716;7.016;2023-02-01T07:03:41;6.10;99.90
71754;DHT22;59593;51.716;7.016;2023-02-01T07:06:07;6.20;99.90
71754;DHT22;59593;51.716;7.016;2023-02-01T07:08:35;6.10;99.90
71754;DHT22;59593;51.716;7.016;2023-02-01T07:11:07;6.20;99.90
71754;DHT22;59593;51.716;7.016;2023-02-01T07:13:33;6.20;99.90
71754;DHT22;59593;51.716;7.016;2023-02-01T07:16:04;6.20;99.90
71754;DHT22;59593;51.716;7.016;2023-02-01T07:18:31;6.20;99.90
71754;DHT22;59593;51.716;7.016;2023-02-01T07:20:57;6.20;99.90
71754;DHT22;59593;51.716;7.016;2023-02-01T07:23:23;6.30;99.90
71754;DHT22;59593;51.716;7.016;2023-02-01T07:25:52;6.20;99.90
71754;DHT22;59593;51.716;7.016;2023-02-01T07:28:17;6.20;99.90
71754;DHT22;59593;51.716;7.016;2023-02-01T07:30:43;6.30;99.90
71754;DHT22;59593;51.716;7.016;2023-02-01T07:33:09;6.20;99.90
71754;DHT22;59593;51.716;7.016;2023-02-01T07:35:34;6.30;99.90
71754;DHT22;59593;51.716;7.016;2023-02-01T07:38:03;6.30;99.90
71754;DHT22;59593;51.716;7.016;2023-02-01T07:40:28;6.30;99.90
71754;DHT22;59593;51.716;7.016;2023-02-01T07:42:55;6.30;99.90
71754;DHT22;59593;51.716;7.016;2023-02-01T07:45:22;6.30;99.90
71754;DHT22;59593;51.716;7.016;2023-02-01T07:47:48;6.40;99.90
71754;DHT22;59593;51.716;7.016;2023-02-01T07:50:14;6.40;99.90
71754;DHT22;59593;51.716;7.016;2023-02-01T07:52:43;6.40;99.90
71754;DHT22;59593;51.716;7.016;2023-02-01T07:55:09;6.40;99.90
71754;DHT22;59593;51.716;7.016;2023-02-01T07:57:35;6.40;99.90
71754;DHT22;59593;51.716;7.016;2023-02-01T08:00:01;6.40;99.90
71754;DHT22;59593;51.716;7.016;2023-02-01T08:02:45;6.40;99.90
71754;DHT22;59593;51.716;7.016;2023-02-01T08:05:11;6.40;99.90
71754;DHT22;59593;51.716;7.016;2023-02-01T08:07:37;6.40;99.90
71754;DHT22;59593;51.716;7.016;2023-02-01T08:10:06;6.40;99.90
71754;DHT22;59593;51.716;7.016;2023-02-01T08:12:36;6.40;99.90
71754;DHT22;59593;51.716;7.016;2023-02-01T08:15:04;6.50;99.90
71754;DHT22;59593;51.716;7.016;2023-02-01T08:17:30;6.40;99.90
71754;DHT22;59593;51.716;7.016;2023-02-01T08:19:56;6.50;99.90
71754;DHT22;59593;51.716;7.016;2023-02-01T08:22:21;6.50;99.90
71754;DHT22;59593;51.716;7.016;2023-02-01T08:24:50;6.50;99.90
71754;DHT22;59593;51.716;7.016;2023-02-01T08:27:17;6.50;99.90
71754;DHT22;59593;51.716;7.016;2023-02-01T08:29:42;6.50;99.90
71754;DHT22;59593;51.716;7.016;2023-02-01T08:32:12;6.50;99.90
71754;DHT22;59593;51.716;7.016;2023-02-01T08:34:47;6.60;99.90
71754;DHT22;59593;51.716;7.016;2023-02-01T08:37:12;6.60;99.90
71754;DHT22;59593;51.716;7.016;2023-02-01T08:39:45;6.60;99.90
71754;DHT22;59593;51.716;7.016;2023-02-01T08:42:12;6.60;99.90
71754;DHT22;59593;51.716;7.016;2023-02-01T08:44:57;6.60;99.90
71754;DHT22;59593;51.716;7.016;2023-02-01T08:47:31;6.60;99.90
71754;DHT22;59593;51.716;7.016;2023-02-01T08:50:02;6.70;99.90
71754;DHT22;59593;51.716;7.016;2023-02-01T08:52:28;6.60;99.90
71754;DHT22;59593;51.716;7.016;2023-02-01T08:54:53;6.70;99.90
71754;DHT22;59593;51.716;7.016;2023-02-01T08:57:19;6.60;99.90
71754;DHT22;59593;51.716;7.016;2023-02-01T08:59:51;6.60;99.90
71754;DHT22;59593;51.716;7.016;2023-02-01T09:02:17;6.70;99.90
71754;DHT22;59593;51.716;7.016;2023-02-01T09:04:43;6.70;99.90
71754;DHT22;59593;51.716;7.016;2023-02-01T09:07:09;6.70;99.90
71754;DHT22;59593;51.716;7.016;2023-02-01T09:09:36;6.80;99.90
71754;DHT22;59593;51.716;7.016;2023-02-01T09:12:02;6.70;99.90
71754;DHT22;59593;51.716;7.016;2023-02-01T09:14:28;6.80;99.90
71754;DHT22;59593;51.716;7.016;2023-02-01T09:16:54;6.80;99.90
71754;DHT22;59593;51.716;7.016;2023-02-01T09:19:19;6.80;99.90
71754;DHT22;59593;51.716;7.016;2023-02-01T09:21:45;6.80;99.90
71754;DHT22;59593;51.716;7.016;2023-02-01T09:24:11;6.80;99.90
71754;DHT22;59593;51.716;7.016;2023-02-01T09:26:37;6.80;99.90
71754;DHT22;59593;51.716;7.016;2023-02-01T09:29:04;6.90;99.90
71754;DHT22;59593;51.716;7.016;2023-02-01T09:31:35;6.90;99.90
71754;DHT22;59593;51.716;7.016;2023-02-01T09:34:04;7.00;99.90
71754;DHT22;59593;51.716;7.016;2023-02-01T09:36:30;7.00;99.90
71754;DHT22;59593;51.716;7.016;2023-02-01T09:38:56;7.00;99.90
71754;DHT22;59593;51.716;7.016;2023-02-01T09:41:35;7.10;99.90
71754;DHT22;59593;51.716;7.016;2023-02-01T09:46:47;7.00;99.90
71754;DHT22;59593;51.716;7.016;2023-02-01T09:49:20;7.00;99.90
71754;DHT22;59593;51.716;7.016;2023-02-01T09:51:49;7.00;99.90
71754;DHT22;59593;51.716;7.016;2023-02-01T09:54:22;7.00;99.90
71754;DHT22;59593;51.716;7.016;2023-02-01T09:57:36;7.00;99.90
71754;DHT22;59593;51.716;7.016;2023-02-01T09:59:47;7.00;99.90
71754;DHT22;59593;51.716;7.016;2023-02-01T10:02:24;7.10;99.90
71754;DHT22;59593;51.716;7.016;2023-02-01T10:04:50;7.00;99.90
71754;DHT22;59593;51.716;7.016;2023-02-01T10:10:30;7.00;99.90
71754;DHT22;59593;51.716;7.016;2023-02-01T10:21:51;6.90;99.90
71754;DHT22;59593;51.716;7.016;2023-02-01T10:26:59;7.00;99.90
71754;DHT22;59593;51.716;7.016;2023-02-01T10:29:35;7.00;99.90
71754;DHT22;59593;51.716;7.016;2023-02-01T10:32:02;7.00;99.90
71754;DHT22;59593;51.716;7.016;2023-02-01T10:34:31;7.00;99.90
71754;DHT22;59593;51.716;7.016;2023-02-01T10:37:11;7.00;99.90
71754;DHT22;59593;51.716;7.016;2023-02-01T10:39:45;7.00;99.90
71754;DHT22;59593;51.716;7.016;2023-02-01T10:42:11;7.00;99.90
71754;DHT22;59593;51.716;7.016;2023-02-01T10:44:42;7.10;99.90
71754;DHT22;59593;51.716;7.016;2023-02-01T10:47:10;7.20;99.90
71754;DHT22;59593;51.716;7.016;2023-02-01T10:49:47;7.20;99.90
71754;DHT22;59593;51.716;7.016;2023-02-01T10:52:33;7.20;99.90
71754;DHT22;59593;51.716;7.016;2023-02-01T10:55:30;7.10;99.90
71754;DHT22;59593;51.716;7.016;2023-02-01T10:57:59;7.10;99.90
71754;DHT22;59593;51.716;7.016;2023-02-01T11:00:26;7.10;99.90
71754;DHT22;59593;51.716;7.016;2023-02-01T11:02:53;7.10;99.90
71754;DHT22;59593;51.716;7.016;2023-02-01T11:05:19;7.20;99.90
71754;DHT22;59593;51.716;7.016;2023-02-01T11:07:53;7.20;99.90
71754;DHT22;59593;51.716;7.016;2023-02-01T11:10:39;7.20;99.90
71754;DHT22;59593;51.716;7.016;2023-02-01T11:13:15;7.30;99.90
71754;DHT22;59593;51.716;7.016;2023-02-01T11:15:45;7.30;99.90
71754;DHT22;59593;51.716;7.016;2023-02-01T11:18:18;7.30;99.90
71754;DHT22;59593;51.716;7.016;2023-02-01T11:20:46;7.30;99.90
71754;DHT22;59593;51.716;7.016;2023-02-01T11:23:25;7.40;99.90
71754;DHT22;59593;51.716;7.016;2023-02-01T11:25:57;7.40;99.90
71754;DHT22;59593;51.716;7.016;2023-02-01T11:28:29;7.40;99.90
71754;DHT22;59593;51.716;7.016;2023-02-01T11:30:57;7.40;99.90
71754;DHT22;59593;51.716;7.016;2023-02-01T11:33:36;7.50;99.90
71754;DHT22;59593;51.716;7.016;2023-02-01T11:36:16;7.50;99.90
71754;DHT22;59593;51.716;7.016;2023-02-01T11:38:51;7.50;99.90
71754;DHT22;59593;51.716;7.016;2023-02-01T11:41:26;7.50;99.90
71754;DHT22;59593;51.716;7.016;2023-02-01T11:43:58;7.40;99.90
71754;DHT22;59593;51.716;7.016;2023-02-01T11:46:29;7.30;99.90
71754;DHT22;59593;51.716;7.016;2023-02-01T11:49:21;7.20;99.90
71754;DHT22;59593;51.716;7.016;2023-02-01T11:57:12;6.90;99.90
71754;DHT22;59593;51.716;7.016;2023-02-01T11:59:54;6.90;99.90
71754;DHT22;59593;51.716;7.016;2023-02-01T12:08:04;6.80;99.90
71754;DHT22;59593;51.716;7.016;2023-02-01T12:26:50;7.20;99.90
71754;DHT22;59593;51.716;7.016;2023-02-01T12:32:34;7.20;99.90
71754;DHT22;59593;51.716;7.016;2023-02-01T12:35:21;7.10;99.90
71754;DHT22;59593;51.716;7.016;2023-02-01T12:44:02;7.10;99.90
71754;DHT22;59593;51.716;7.016;2023-02-01T12:46:49;7.10;99.90
71754;DHT22;59593;51.716;7.016;2023-02-01T12:52:11;7.10;99.90
71754;DHT22;59593;51.716;7.016;2023-02-01T12:54:53;7.20;99.90
71754;DHT22;59593;51.716;7.016;2023-02-01T12:57:32;7.20;99.90
71754;DHT22;59593;51.716;7.016;2023-02-01T13:00:09;7.30;99.90
71754;DHT22;59593;51.716;7.016;2023-02-01T13:05:58;7.40;99.90
71754;DHT22;59593;51.716;7.016;2023-02-01T13:11:20;7.50;99.90
71754;DHT22;59593;51.716;7.016;2023-02-01T13:17:04;7.50;99.90
71754;DHT22;59593;51.716;7.016;2023-02-01T13:19:57;7.50;99.90
71754;DHT22;59593;51.716;7.016;2023-02-01T13:22:36;7.50;99.90
71754;DHT22;59593;51.716;7.016;2023-02-01T13:27:36;7.60;99.90
71754;DHT22;59593;51.716;7.016;2023-02-01T13:30:59;7.60;99.90
71754;DHT22;59593;51.716;7.016;2023-02-01T13:33:14;7.60;99.90
71754;DHT22;59593;51.716;7.016;2023-02-01T13:42:19;7.70;99.90
71754;DHT22;59593;51.716;7.016;2023-02-01T13:45:01;7.70;99.90
71754;DHT22;59593;51.716;7.016;2023-02-01T13:47:48;7.80;99.90
71754;DHT22;59593;51.716;7.016;2023-02-01T13:50:36;7.80;99.90
71754;DHT22;59593;51.716;7.016;2023-02-01T13:55:44;7.80;99.90
71754;DHT22;59593;51.716;7.016;2023-02-01T13:58:18;7.90;99.90
71754;DHT22;59593;51.716;7.016;2023-02-01T14:00:45;7.80;99.90
71754;DHT22;59593;51.716;7.016;2023-02-01T14:03:22;7.70;99.90
71754;DHT22;59593;51.716;7.016;2023-02-01T14:08:43;7.70;99.90
71754;DHT22;59593;51.716;7.016;2023-02-01T14:11:33;7.70;99.90
71754;DHT22;59593;51.716;7.016;2023-02-01T14:19:27;7.90;99.90
71754;DHT22;59593;51.716;7.016;2023-02-01T14:21:58;7.80;99.90
71754;DHT22;59593;51.716;7.016;2023-02-01T14:29:43;7.70;99.90
71754;DHT22;59593;51.716;7.016;2023-02-01T14:32:16;7.70;99.90
71754;DHT22;59593;51.716;7.016;2023-02-01T14:44:51;7.70;99.90
71754;DHT22;59593;51.716;7.016;2023-02-01T14:50:07;7.80;99.90
71754;DHT22;59593;51.716;7.016;2023-02-01T15:01:02;7.80;99.90
71754;DHT22;59593;51.716;7.016;2023-02-01T15:03:45;7.80;99.90
71754;DHT22;59593;51.716;7.016;2023-02-01T15:06:23;7.90;99.90
71754;DHT22;59593;51.716;7.016;2023-02-01T15:08:54;7.90;99.90
71754;DHT22;59593;51.716;7.016;2023-02-01T15:11:20;7.80;99.90
71754;DHT22;59593;51.716;7.016;2023-02-01T15:13:51;7.80;99.90
71754;DHT22;59593;51.716;7.016;2023-02-01T15:16:19;7.80;99.90
71754;DHT22;59593;51.716;7.016;2023-02-01T15:18:48;7.80;99.90
71754;DHT22;59593;51.716;7.016;2023-02-01T15:21:22;7.80;99.90
71754;DHT22;59593;51.716;7.016;2023-02-01T15:23:48;7.70;99.90
71754;DHT22;59593;51.716;7.016;2023-02-01T15:26:30;7.70;99.90
71754;DHT22;59593;51.716;7.016;2023-02-01T15:28:59;7.80;99.90
71754;DHT22;59593;51.716;7.016;2023-02-01T15:31:40;7.70;99.90
71754;DHT22;59593;51.716;7.016;2023-02-01T15:34:06;7.80;99.90
71754;DHT22;59593;51.716;7.016;2023-02-01T15:36:32;7.80;99.90
71754;DHT22;59593;51.716;7.016;2023-02-01T15:39:31;7.90;99.90
71754;DHT22;59593;51.716;7.016;2023-02-01T15:42:11;7.80;99.90
71754;DHT22;59593;51.716;7.016;2023-02-01T15:44:44;7.80;99.90
71754;DHT22;59593;51.716;7.016;2023-02-01T15:47:25;7.80;99.90
71754;DHT22;59593;51.716;7.016;2023-02-01T15:49:53;7.90;99.90
71754;DHT22;59593;51.716;7.016;2023-02-01T15:52:39;7.90;99.90
71754;DHT22;59593;51.716;7.016;2023-02-01T15:57:58;7.90;99.90
71754;DHT22;59593;51.716;7.016;2023-02-01T16:00:26;7.90;99.90
71754;DHT22;59593;51.716;7.016;2023-02-01T16:03:15;7.80;99.90
71754;DHT22;59593;51.716;7.016;2023-02-01T16:05:55;7.90;99.90
71754;DHT22;59593;51.716;7.016;2023-02-01T16:08:26;7.90;99.90
71754;DHT22;59593;51.716;7.016;2023-02-01T16:11:00;7.90;99.90
71754;DHT22;59593;51.716;7.016;2023-02-01T16:13:27;7.90;99.90
71754;DHT22;59593;51.716;7.016;2023-02-01T16:15:53;7.80;99.90
71754;DHT22;59593;51.716;7.016;2023-02-01T16:18:24;7.80;99.90
71754;DHT22;59593;51.716;7.016;2023-02-01T16:20:53;7.70;99.90
71754;DHT22;59593;51.716;7.016;2023-02-01T16:23:21;7.60;99.90
71754;DHT22;59593;51.716;7.016;2023-02-01T16:25:47;7.50;99.90
71754;DHT22;59593;51.716;7.016;2023-02-01T16:28:13;7.40;99.90
71754;DHT22;59593;51.716;7.016;2023-02-01T16:31:04;7.30;99.90
71754;DHT22;59593;51.716;7.016;2023-02-01T16:33:30;7.30;99.90
71754;DHT22;59593;51.716;7.016;2023-02-01T16:36:05;7.10;99.90
71754;DHT22;59593;51.716;7.016;2023-02-01T16:38:31;6.70;99.90
71754;DHT22;59593;51.716;7.016;2023-02-01T16:41:14;6.20;99.90
71754;DHT22;59593;51.716;7.016;2023-02-01T16:43:40;6.00;99.90
71754;DHT22;59593;51.716;7.016;2023-02-01T16:46:16;5.90;99.90
71754;DHT22;59593;51.716;7.016;2023-02-01T16:48:46;5.90;99.90
71754;DHT22;59593;51.716;7.016;2023-02-01T16:51:16;5.90;99.90
71754;DHT22;59593;51.716;7.016;2023-02-01T16:53:51;5.90;99.90
71754;DHT22;59593;51.716;7.016;2023-02-01T16:56:28;5.90;99.90
71754;DHT22;59593;51.716;7.016;2023-02-01T16:58:54;5.90;99.90
71754;DHT22;59593;51.716;7.016;2023-02-01T17:01:20;6.00;99.90
71754;DHT22;59593;51.716;7.016;2023-02-01T17:03:46;6.00;99.90
71754;DHT22;59593;51.716;7.016;2023-02-01T17:06:20;6.10;99.90
71754;DHT22;59593;51.716;7.016;2023-02-01T17:08:52;6.00;99.90
71754;DHT22;59593;51.716;7.016;2023-02-01T17:11:19;6.00;99.90
71754;DHT22;59593;51.716;7.016;2023-02-01T17:13:44;6.10;99.90
71754;DHT22;59593;51.716;7.016;2023-02-01T17:16:29;6.00;99.90
71754;DHT22;59593;51.716;7.016;2023-02-01T17:19:10;6.00;99.90
71754;DHT22;59593;51.716;7.016;2023-02-01T17:21:46;6.10;99.90
71754;DHT22;59593;51.716;7.016;2023-02-01T17:24:13;6.00;99.90
71754;DHT22;59593;51.716;7.016;2023-02-01T17:26:40;6.00;99.90
71754;DHT22;59593;51.716;7.016;2023-02-01T17:29:05;6.10;99.90
71754;DHT22;59593;51.716;7.016;2023-02-01T17:31:33;6.10;99.90
71754;DHT22;59593;51.716;7.016;2023-02-01T17:34:01;6.00;99.90
71754;DHT22;59593;51.716;7.016;2023-02-01T17:36:26;6.10;99.90
71754;DHT22;59593;51.716;7.016;2023-02-01T17:38:52;6.10;99.90
71754;DHT22;59593;51.716;7.016;2023-02-01T17:41:18;6.10;99.90
71754;DHT22;59593;51.716;7.016;2023-02-01T17:43:43;6.10;99.90
71754;DHT22;59593;51.716;7.016;2023-02-01T17:46:14;6.20;99.90
71754;DHT22;59593;51.716;7.016;2023-02-01T17:48:41;6.10;99.90
71754;DHT22;59593;51.716;7.016;2023-02-01T17:51:33;6.20;99.90
71754;DHT22;59593;51.716;7.016;2023-02-01T17:53:59;6.20;99.90
71754;DHT22;59593;51.716;7.016;2023-02-01T17:56:26;6.20;99.90
71754;DHT22;59593;51.716;7.016;2023-02-01T17:58:52;6.10;99.90
71754;DHT22;59593;51.716;7.016;2023-02-01T18:01:22;5.80;99.90
71754;DHT22;59593;51.716;7.016;2023-02-01T18:03:48;5.70;99.90
71754;DHT22;59593;51.716;7.016;2023-02-01T18:06:24;5.80;99.90
71754;DHT22;59593;51.716;7.016;2023-02-01T18:08:51;6.00;99.90
71754;DHT22;59593;51.716;7.016;2023-02-01T18:11:18;6.00;99.90
71754;DHT22;59593;51.716;7.016;2023-02-01T18:13:45;6.10;99.90
71754;DHT22;59593;51.716;7.016;2023-02-01T18:16:31;6.10;99.90
71754;DHT22;59593;51.716;7.016;2023-02-01T18:18:57;6.10;99.90
71754;DHT22;59593;51.716;7.016;2023-02-01T18:21:29;6.10;99.90
71754;DHT22;59593;51.716;7.016;2023-02-01T18:23:56;6.20;99.90
71754;DHT22;59593;51.716;7.016;2023-02-01T18:26:22;6.20;99.90
71754;DHT22;59593;51.716;7.016;2023-02-01T18:28:48;6.10;99.90
71754;DHT22;59593;51.716;7.016;2023-02-01T18:31:26;6.10;99.90
71754;DHT22;59593;51.716;7.016;2023-02-01T18:33:55;6.10;99.90
71754;DHT22;59593;51.716;7.016;2023-02-01T18:36:21;6.20;99.90
71754;DHT22;59593;51.716;7.016;2023-02-01T18:38:47;6.30;99.90